createdAt,value
2023-01-11T00:00:22.258Z,9.99
2023-01-11T00:01:22.324Z,10.21
2023-01-11T00:02:22.487Z,10.04
2023-01-11T00:03:22.533Z,9.99
2023-01-11T00:04:22.625Z,9.99
2023-01-11T00:05:22.693Z,10.04
2023-01-11T00:06:22.803Z,10.21
2023-01-11T00:07:22.860Z,10.21
2023-01-11T00:08:22.943Z,9.99
2023-01-11T00:09:23.046Z,10.04
2023-01-11T00:10:23.113Z,9.99
2023-01-11T00:11:23.198Z,9.99
2023-01-11T00:12:23.289Z,9.99
2023-01-11T00:13:23.352Z,10.26
2023-01-11T00:14:23.449Z,10.21
2023-01-11T00:15:23.563Z,9.99
2023-01-11T00:16:23.651Z,9.99
2023-01-11T00:17:23.710Z,9.99
2023-01-11T00:18:23.807Z,9.99
2023-01-11T00:19:23.890Z,10.04
2023-01-11T00:20:23.974Z,10.26
2023-01-11T00:21:30.149Z,10.21
2023-01-11T00:22:24.159Z,10.04
2023-01-11T00:23:24.264Z,9.99
2023-01-11T00:24:24.481Z,10.21
2023-01-11T00:25:24.425Z,9.99
2023-01-11T00:26:24.517Z,9.99
2023-01-11T00:27:24.616Z,10.21
2023-01-11T00:28:24.684Z,9.99
2023-01-11T00:29:24.784Z,9.99
2023-01-11T00:30:24.843Z,10.04
2023-01-11T00:31:24.994Z,10.21
2023-01-11T00:32:25.001Z,9.99
2023-01-11T00:33:25.119Z,9.94
2023-01-11T00:34:25.193Z,9.99
2023-01-11T00:35:25.274Z,9.99
2023-01-11T00:36:25.340Z,9.99
2023-01-11T00:37:25.401Z,10.26
2023-01-11T00:38:25.484Z,9.99
2023-01-11T00:39:25.534Z,9.99
2023-01-11T00:40:25.616Z,9.99
2023-01-11T00:41:25.683Z,9.99
2023-01-11T00:42:25.758Z,9.99
2023-01-11T00:43:25.862Z,9.99
2023-01-11T00:44:25.939Z,9.99
2023-01-11T00:45:26.011Z,10.21
2023-01-11T00:46:26.160Z,9.99
2023-01-11T00:47:26.194Z,9.99
2023-01-11T00:48:26.264Z,10.26
2023-01-11T00:49:26.361Z,9.94
2023-01-11T00:50:26.492Z,9.99
2023-01-11T00:51:26.540Z,9.99
2023-01-11T00:52:32.600Z,9.94
2023-01-11T00:53:26.697Z,10.21
2023-01-11T00:54:26.797Z,10.04
2023-01-11T00:55:26.902Z,9.99
2023-01-11T00:56:26.989Z,10.04
2023-01-11T00:57:27.038Z,9.99
2023-01-11T00:58:27.123Z,9.99
2023-01-11T00:59:27.214Z,9.99
2023-01-11T01:00:27.276Z,9.99
2023-01-11T01:01:27.436Z,9.99
2023-01-11T01:02:27.533Z,10.04
2023-01-11T01:03:27.542Z,9.99
2023-01-11T01:04:27.624Z,10.04
2023-01-11T01:05:27.702Z,9.99
2023-01-11T01:06:27.806Z,10.04
2023-01-11T01:07:27.871Z,9.99
2023-01-11T01:08:27.973Z,9.99
2023-01-11T01:09:27.999Z,9.99
2023-01-11T01:10:28.073Z,9.99
2023-01-11T01:11:28.177Z,10.04
2023-01-11T01:12:28.274Z,10.04
2023-01-11T01:13:28.368Z,9.99
2023-01-11T01:14:28.498Z,9.99
2023-01-11T01:15:28.538Z,10.04
2023-01-11T01:16:28.593Z,10.04
2023-01-11T01:17:28.695Z,9.99
2023-01-11T01:18:28.778Z,10.04
2023-01-11T01:19:28.894Z,9.99
2023-01-11T01:20:28.955Z,10.04
2023-01-11T01:21:29.032Z,9.99
2023-01-11T01:22:29.137Z,10.21
2023-01-11T01:23:35.196Z,9.99
2023-01-11T01:24:29.321Z,10.04
2023-01-11T01:25:29.424Z,10.37
2023-01-11T01:26:29.491Z,9.99
2023-01-11T01:27:29.541Z,10.04
2023-01-11T01:28:29.624Z,9.99
2023-01-11T01:29:29.731Z,10.21
2023-01-11T01:30:29.818Z,9.99
2023-01-11T01:31:29.922Z,10.04
2023-01-11T01:32:29.997Z,10.21
2023-01-11T01:33:30.040Z,9.99
2023-01-11T01:34:30.149Z,10.04
2023-01-11T01:35:30.689Z,9.99
2023-01-11T01:36:30.319Z,9.99
2023-01-11T01:37:30.390Z,10.04
2023-01-11T01:38:30.465Z,9.94
2023-01-11T01:39:30.550Z,9.99
2023-01-11T01:40:30.616Z,9.99
2023-01-11T01:41:30.719Z,9.99
2023-01-11T01:42:30.801Z,9.99
2023-01-11T01:43:30.892Z,10.10
2023-01-11T01:44:30.966Z,10.04
2023-01-11T01:45:31.041Z,10.04
2023-01-11T01:46:31.176Z,9.99
2023-01-11T01:47:31.267Z,9.99
2023-01-11T01:48:31.301Z,9.94
2023-01-11T01:49:31.368Z,10.31
2023-01-11T01:50:31.461Z,9.99
2023-01-11T01:51:31.547Z,9.99
2023-01-11T01:52:31.664Z,9.99
2023-01-11T01:53:31.742Z,9.99
2023-01-11T01:54:37.810Z,9.99
2023-01-11T01:55:31.913Z,9.99
2023-01-11T01:56:31.994Z,9.99
2023-01-11T01:57:32.078Z,10.04
2023-01-11T01:58:32.184Z,9.99
2023-01-11T01:59:32.261Z,9.99
2023-01-11T02:00:32.332Z,9.99
2023-01-11T02:01:32.475Z,9.99
2023-01-11T02:02:32.516Z,9.99
2023-01-11T02:03:32.604Z,9.99
2023-01-11T02:04:32.672Z,9.99
2023-01-11T02:05:32.769Z,9.94
2023-01-11T02:06:32.891Z,9.94
2023-01-11T02:07:32.966Z,9.99
2023-01-11T02:08:33.046Z,10.04
2023-01-11T02:09:33.116Z,9.99
2023-01-11T02:10:33.157Z,9.99
2023-01-11T02:11:33.248Z,9.99
2023-01-11T02:12:33.329Z,9.99
2023-01-11T02:13:33.437Z,10.04
2023-01-11T02:14:33.531Z,9.99
2023-01-11T02:15:33.605Z,9.99
2023-01-11T02:16:33.677Z,9.99
2023-01-11T02:17:33.782Z,9.99
2023-01-11T02:18:33.883Z,9.99
2023-01-11T02:19:33.966Z,9.94
2023-01-11T02:20:34.124Z,9.99
2023-01-11T02:21:34.132Z,9.99
2023-01-11T02:22:34.214Z,9.99
2023-01-11T02:23:34.287Z,9.94
2023-01-11T02:24:34.373Z,9.99
2023-01-11T02:25:40.723Z,9.99
2023-01-11T02:26:34.551Z,10.04
2023-01-11T02:27:34.629Z,9.99
2023-01-11T02:28:34.716Z,10.04
2023-01-11T02:29:34.815Z,10.04
2023-01-11T02:30:34.910Z,9.99
2023-01-11T02:31:35.048Z,9.99
2023-01-11T02:32:35.065Z,9.94
2023-01-11T02:33:35.144Z,9.99
2023-01-11T02:34:35.237Z,9.99
2023-01-11T02:35:35.331Z,10.04
2023-01-11T02:36:35.428Z,9.99
2023-01-11T02:37:35.544Z,9.94
2023-01-11T02:38:35.602Z,9.99
2023-01-11T02:39:35.690Z,9.99
2023-01-11T02:40:35.775Z,9.99
2023-01-11T02:41:35.870Z,9.99
2023-01-11T02:42:35.946Z,9.99
2023-01-11T02:43:36.028Z,9.99
2023-01-11T02:44:36.096Z,10.10
2023-01-11T02:45:36.197Z,9.99
2023-01-11T02:46:36.366Z,9.99
2023-01-11T02:47:36.392Z,9.99
2023-01-11T02:48:36.440Z,10.04
2023-01-11T02:49:36.543Z,10.04
2023-01-11T02:50:36.611Z,10.04
2023-01-11T02:51:36.689Z,9.99
2023-01-11T02:52:36.763Z,10.04
2023-01-11T02:53:36.857Z,10.04
2023-01-11T02:54:36.930Z,9.99
2023-01-11T02:55:37.036Z,9.99
2023-01-11T02:56:43.053Z,9.99
2023-01-11T02:57:37.167Z,9.94
2023-01-11T02:58:37.255Z,9.99
2023-01-11T02:59:37.331Z,9.83
2023-01-11T03:00:37.405Z,10.04
2023-01-11T03:01:37.515Z,9.99
2023-01-11T03:02:37.586Z,10.04
2023-01-11T03:03:37.614Z,9.99
2023-01-11T03:04:37.699Z,9.99
2023-01-11T03:05:37.787Z,9.99
2023-01-11T03:06:37.912Z,9.99
2023-01-11T03:07:37.934Z,9.99
2023-01-11T03:08:37.999Z,9.99
2023-01-11T03:09:38.076Z,9.99
2023-01-11T03:10:38.180Z,9.99
2023-01-11T03:11:38.204Z,9.99
2023-01-11T03:12:38.274Z,9.99
2023-01-11T03:13:38.376Z,9.99
2023-01-11T03:14:38.420Z,9.99
2023-01-11T03:15:38.508Z,9.99
2023-01-11T03:16:38.586Z,9.99
2023-01-11T03:17:38.680Z,10.10
2023-01-11T03:18:38.793Z,9.99
2023-01-11T03:19:38.842Z,10.04
2023-01-11T03:20:38.941Z,10.04
2023-01-11T03:21:39.041Z,9.99
2023-01-11T03:22:39.139Z,9.99
2023-01-11T03:23:39.243Z,10.04
2023-01-11T03:24:39.336Z,10.04
2023-01-11T03:25:39.381Z,9.99
2023-01-11T03:26:39.471Z,9.94
2023-01-11T03:27:45.519Z,10.04
2023-01-11T03:28:39.627Z,9.99
2023-01-11T03:29:39.735Z,9.99
2023-01-11T03:30:39.810Z,9.99
2023-01-11T03:31:39.971Z,9.99
2023-01-11T03:32:39.992Z,9.99
2023-01-11T03:33:40.065Z,9.99
2023-01-11T03:34:40.152Z,9.99
2023-01-11T03:35:40.256Z,9.99
2023-01-11T03:36:40.362Z,9.99
2023-01-11T03:37:40.409Z,9.99
2023-01-11T03:38:40.501Z,9.99
2023-01-11T03:39:40.593Z,9.99
2023-01-11T03:40:40.708Z,9.99
2023-01-11T03:41:40.764Z,10.04
2023-01-11T03:42:40.865Z,9.99
2023-01-11T03:43:40.953Z,9.99
2023-01-11T03:44:41.040Z,9.99
2023-01-11T03:45:41.133Z,9.99
2023-01-11T03:46:41.316Z,9.99
2023-01-11T03:47:41.278Z,9.99
2023-01-11T03:48:41.380Z,9.99
2023-01-11T03:49:41.448Z,9.99
2023-01-11T03:50:41.626Z,10.04
2023-01-11T03:51:41.665Z,10.04
2023-01-11T03:52:41.727Z,9.94
2023-01-11T03:53:41.825Z,9.99
2023-01-11T03:54:41.911Z,10.04
2023-01-11T03:55:41.999Z,10.04
2023-01-11T03:56:42.072Z,10.04
2023-01-11T03:57:42.208Z,9.99
2023-01-11T03:58:48.197Z,10.04
2023-01-11T03:59:42.293Z,9.99
2023-01-11T04:00:42.396Z,9.99
2023-01-11T04:01:42.464Z,9.99
2023-01-11T04:02:42.543Z,9.94
2023-01-11T04:03:42.599Z,10.04
2023-01-11T04:04:42.716Z,9.99
2023-01-11T04:05:42.789Z,10.04
2023-01-11T04:06:42.890Z,10.04
2023-01-11T04:07:43.295Z,9.99
2023-01-11T04:08:43.039Z,10.04
2023-01-11T04:09:43.129Z,9.99
2023-01-11T04:10:43.226Z,10.04
2023-01-11T04:11:43.298Z,9.94
2023-01-11T04:12:43.376Z,10.04
2023-01-11T04:13:43.488Z,9.78
2023-01-11T04:14:43.527Z,9.99
2023-01-11T04:15:43.612Z,9.99
2023-01-11T04:16:43.711Z,9.94
2023-01-11T04:17:43.835Z,9.99
2023-01-11T04:18:43.908Z,10.04
2023-01-11T04:19:44.032Z,10.10
2023-01-11T04:20:44.109Z,9.99
2023-01-11T04:21:44.164Z,9.99
2023-01-11T04:22:44.239Z,9.99
2023-01-11T04:23:44.353Z,9.99
2023-01-11T04:24:44.422Z,9.99
2023-01-11T04:25:44.524Z,9.99
2023-01-11T04:26:44.574Z,9.99
2023-01-11T04:27:44.681Z,9.99
2023-01-11T04:28:44.779Z,10.04
2023-01-11T04:29:50.831Z,9.99
2023-01-11T04:30:44.970Z,9.99
2023-01-11T04:31:45.095Z,9.99
2023-01-11T04:32:45.104Z,9.99
2023-01-11T04:33:45.180Z,10.04
2023-01-11T04:34:45.272Z,9.99
2023-01-11T04:35:45.357Z,9.99
2023-01-11T04:36:45.431Z,9.99
2023-01-11T04:37:45.511Z,10.04
2023-01-11T04:38:45.578Z,9.94
2023-01-11T04:39:45.674Z,10.04
2023-01-11T04:40:45.789Z,9.99
2023-01-11T04:41:45.832Z,9.99
2023-01-11T04:42:45.912Z,9.99
2023-01-11T04:43:46.008Z,9.99
2023-01-11T04:44:46.071Z,9.99
2023-01-11T04:45:46.239Z,9.99
2023-01-11T04:46:46.231Z,9.99
2023-01-11T04:47:46.323Z,10.04
2023-01-11T04:48:46.404Z,9.99
2023-01-11T04:49:46.523Z,9.83
2023-01-11T04:50:46.635Z,9.99
2023-01-11T04:51:46.670Z,9.99
2023-01-11T04:52:47.284Z,9.99
2023-01-11T04:53:46.845Z,9.99
2023-01-11T04:54:46.929Z,9.99
2023-01-11T04:55:47.013Z,9.99
2023-01-11T04:56:47.101Z,9.99
2023-01-11T04:57:47.191Z,9.99
2023-01-11T04:58:47.253Z,9.99
2023-01-11T04:59:47.341Z,9.99
2023-01-11T05:00:53.854Z,9.99
2023-01-11T05:01:47.523Z,9.83
2023-01-11T05:02:47.637Z,10.04
2023-01-11T05:03:47.741Z,9.99
2023-01-11T05:04:47.809Z,10.04
2023-01-11T05:05:47.851Z,10.04
2023-01-11T05:06:48.107Z,10.04
2023-01-11T05:07:48.056Z,9.94
2023-01-11T05:08:48.114Z,9.99
2023-01-11T05:09:48.215Z,9.99
2023-01-11T05:10:48.287Z,9.99
2023-01-11T05:11:48.413Z,9.78
2023-01-11T05:12:48.473Z,9.94
2023-01-11T05:13:48.560Z,9.99
2023-01-11T05:14:48.641Z,10.04
2023-01-11T05:15:48.724Z,9.78
2023-01-11T05:16:48.841Z,9.83
2023-01-11T05:17:48.904Z,9.99
2023-01-11T05:18:48.997Z,10.04
2023-01-11T05:19:49.095Z,10.04
2023-01-11T05:20:49.155Z,9.99
2023-01-11T05:21:49.253Z,10.04
2023-01-11T05:22:49.351Z,10.04
2023-01-11T05:23:49.452Z,9.83
2023-01-11T05:24:49.565Z,10.04
2023-01-11T05:25:49.631Z,9.99
2023-01-11T05:26:49.696Z,9.83
2023-01-11T05:27:49.772Z,10.04
2023-01-11T05:28:49.851Z,9.99
2023-01-11T05:29:49.927Z,9.99
2023-01-11T05:30:50.040Z,10.10
2023-01-11T05:31:56.090Z,9.78
2023-01-11T05:32:50.155Z,10.10
2023-01-11T05:33:50.256Z,9.94
2023-01-11T05:34:50.310Z,10.15
2023-01-11T05:35:50.411Z,9.99
2023-01-11T05:36:50.511Z,9.99
2023-01-11T05:37:50.564Z,9.83
2023-01-11T05:38:50.656Z,9.99
2023-01-11T05:39:50.731Z,9.99
2023-01-11T05:40:50.821Z,9.99
2023-01-11T05:41:50.911Z,9.83
2023-01-11T05:42:51.015Z,9.99
2023-01-11T05:43:51.054Z,9.99
2023-01-11T05:44:51.151Z,9.99
2023-01-11T05:45:51.303Z,10.04
2023-01-11T05:46:51.295Z,9.99
2023-01-11T05:47:51.381Z,9.88
2023-01-11T05:48:51.490Z,9.99
2023-01-11T05:49:51.572Z,9.78
2023-01-11T05:50:51.629Z,9.99
2023-01-11T05:51:51.705Z,10.26
2023-01-11T05:52:51.807Z,9.99
2023-01-11T05:53:51.900Z,9.99
2023-01-11T05:54:51.977Z,9.83
2023-01-11T05:55:52.039Z,9.88
2023-01-11T05:56:52.124Z,9.99
2023-01-11T05:57:52.191Z,10.04
2023-01-11T05:58:52.289Z,9.78
2023-01-11T05:59:52.369Z,9.78
2023-01-11T06:00:52.466Z,9.78
2023-01-11T06:01:52.530Z,10.10
2023-01-11T06:02:58.621Z,10.04
2023-01-11T06:03:52.703Z,9.99
2023-01-11T06:04:54.413Z,9.88
2023-01-11T06:05:52.832Z,10.04
2023-01-11T06:06:52.978Z,9.99
2023-01-11T06:07:52.998Z,9.99
2023-01-11T06:08:53.126Z,9.78
2023-01-11T06:09:53.159Z,9.83
2023-01-11T06:10:53.242Z,9.83
2023-01-11T06:11:53.333Z,9.83
2023-01-11T06:12:53.430Z,9.99
2023-01-11T06:13:53.500Z,9.83
2023-01-11T06:14:53.579Z,9.83
2023-01-11T06:15:53.671Z,9.99
2023-01-11T06:16:53.814Z,9.99
2023-01-11T06:17:53.835Z,9.78
2023-01-11T06:18:53.881Z,10.10
2023-01-11T06:19:53.964Z,10.04
2023-01-11T06:20:54.062Z,9.88
2023-01-11T06:21:54.140Z,10.04
2023-01-11T06:22:54.236Z,9.99
2023-01-11T06:23:54.328Z,9.83
2023-01-11T06:24:54.397Z,9.72
2023-01-11T06:25:54.468Z,9.78
2023-01-11T06:26:54.517Z,10.04
2023-01-11T06:27:54.613Z,9.99
2023-01-11T06:28:54.754Z,9.99
2023-01-11T06:29:54.806Z,9.99
2023-01-11T06:30:54.892Z,9.99
2023-01-11T06:31:54.975Z,9.99
2023-01-11T06:32:55.061Z,9.99
2023-01-11T06:34:01.360Z,9.78
2023-01-11T06:34:55.249Z,9.83
2023-01-11T06:35:55.330Z,9.99
2023-01-11T06:36:55.394Z,9.99
2023-01-11T06:37:55.486Z,9.99
2023-01-11T06:38:55.555Z,9.99
2023-01-11T06:39:55.699Z,9.99
2023-01-11T06:40:55.731Z,9.83
2023-01-11T06:41:55.829Z,10.04
2023-01-11T06:42:55.929Z,9.83
2023-01-11T06:43:56.038Z,9.78
2023-01-11T06:44:56.091Z,9.99
2023-01-11T06:45:56.250Z,9.78
2023-01-11T06:46:56.247Z,10.04
2023-01-11T06:47:56.359Z,9.78
2023-01-11T06:48:56.453Z,10.10
2023-01-11T06:49:56.531Z,9.99
2023-01-11T06:50:56.644Z,9.83
2023-01-11T06:51:56.697Z,9.78
2023-01-11T06:52:56.772Z,9.83
2023-01-11T06:53:56.869Z,9.83
2023-01-11T06:54:56.964Z,9.78
2023-01-11T06:55:57.030Z,9.83
2023-01-11T06:56:57.124Z,9.78
2023-01-11T06:57:57.200Z,9.99
2023-01-11T06:58:57.261Z,9.99
2023-01-11T06:59:57.362Z,9.78
2023-01-11T07:00:57.543Z,9.83
2023-01-11T07:01:57.537Z,9.94
2023-01-11T07:02:57.596Z,9.88
2023-01-11T07:03:57.664Z,9.83
2023-01-11T07:05:03.774Z,9.99
2023-01-11T07:05:57.866Z,9.78
2023-01-11T07:06:57.969Z,9.83
2023-01-11T07:07:58.045Z,9.99
2023-01-11T07:08:58.094Z,9.83
2023-01-11T07:09:58.179Z,9.83
2023-01-11T07:10:58.323Z,9.83
2023-01-11T07:11:58.333Z,10.15
2023-01-11T07:12:58.473Z,9.83
2023-01-11T07:13:58.519Z,9.83
2023-01-11T07:14:58.594Z,9.78
2023-01-11T07:15:58.747Z,9.78
2023-01-11T07:16:58.750Z,9.99
2023-01-11T07:17:58.838Z,10.04
2023-01-11T07:18:58.943Z,9.78
2023-01-11T07:19:59.049Z,9.99
2023-01-11T07:20:59.108Z,9.83
2023-01-11T07:21:59.169Z,9.78
2023-01-11T07:22:59.257Z,9.78
2023-01-11T07:23:59.348Z,9.99
2023-01-11T07:24:59.441Z,10.04
2023-01-11T07:25:59.539Z,9.83
2023-01-11T07:26:59.603Z,9.78
2023-01-11T07:27:59.722Z,9.78
2023-01-11T07:28:59.723Z,9.99
2023-01-11T07:29:59.819Z,9.83
2023-01-11T07:31:00.361Z,9.78
2023-01-11T07:31:59.981Z,9.83
2023-01-11T07:33:00.055Z,9.83
2023-01-11T07:34:00.151Z,9.78
2023-01-11T07:35:00.236Z,9.78
2023-01-11T07:36:06.840Z,9.83
2023-01-11T07:37:00.393Z,9.83
2023-01-11T07:38:00.484Z,9.83
2023-01-11T07:39:00.567Z,9.83
2023-01-11T07:40:00.659Z,9.78
2023-01-11T07:41:00.732Z,9.78
2023-01-11T07:42:00.822Z,9.78
2023-01-11T07:43:00.899Z,9.83
2023-01-11T07:44:01.020Z,9.83
2023-01-11T07:45:01.044Z,9.83
2023-01-11T07:46:01.247Z,9.99
2023-01-11T07:47:01.219Z,9.83
2023-01-11T07:48:01.269Z,9.83
2023-01-11T07:49:01.384Z,9.83
2023-01-11T07:50:01.494Z,9.78
2023-01-11T07:51:01.533Z,9.83
2023-01-11T07:52:01.606Z,9.83
2023-01-11T07:53:01.689Z,9.83
2023-01-11T07:54:01.734Z,9.83
2023-01-11T07:55:01.801Z,9.83
2023-01-11T07:56:01.884Z,9.78
2023-01-11T07:57:01.936Z,9.88
2023-01-11T07:58:02.021Z,9.83
2023-01-11T07:59:02.123Z,9.78
2023-01-11T08:00:02.195Z,9.78
2023-01-11T08:01:02.290Z,9.78
2023-01-11T08:02:02.390Z,9.83
2023-01-11T08:03:02.556Z,9.83
2023-01-11T08:04:02.519Z,9.83
2023-01-11T08:05:03.405Z,9.78
2023-01-11T08:06:02.697Z,9.83
2023-01-11T08:07:08.924Z,9.83
2023-01-11T08:08:02.837Z,9.78
2023-01-11T08:09:02.936Z,9.78
2023-01-11T08:10:03.018Z,9.88
2023-01-11T08:11:04.946Z,9.83
2023-01-11T08:12:03.167Z,9.83
2023-01-11T08:13:03.280Z,9.78
2023-01-11T08:14:03.366Z,9.88
2023-01-11T08:15:03.508Z,9.78
2023-01-11T08:16:03.632Z,9.78
2023-01-11T08:17:03.629Z,9.83
2023-01-11T08:18:03.715Z,9.83
2023-01-11T08:19:03.766Z,9.78
2023-01-11T08:20:03.854Z,9.83
2023-01-11T08:21:03.924Z,9.94
2023-01-11T08:22:03.994Z,9.94
2023-01-11T08:23:04.069Z,9.78
2023-01-11T08:24:04.163Z,9.83
2023-01-11T08:25:04.252Z,9.78
2023-01-11T08:26:04.305Z,9.83
2023-01-11T08:27:04.565Z,9.94
2023-01-11T08:28:04.479Z,9.83
2023-01-11T08:29:04.592Z,9.78
2023-01-11T08:30:04.643Z,9.83
2023-01-11T08:31:04.734Z,9.83
2023-01-11T08:32:04.778Z,9.83
2023-01-11T08:33:04.881Z,9.83
2023-01-11T08:34:04.975Z,9.83
2023-01-11T08:35:05.136Z,9.94
2023-01-11T08:36:05.141Z,9.83
2023-01-11T08:37:05.219Z,9.83
2023-01-11T08:40:25.063Z,9.88
2023-01-11T08:41:26.148Z,9.83
2023-01-11T08:42:26.248Z,9.78
2023-01-11T08:43:26.315Z,9.83
2023-01-11T08:44:34.137Z,9.78
2023-01-11T08:45:26.513Z,9.78
2023-01-11T08:46:26.617Z,9.78
2023-01-11T08:47:26.673Z,9.83
2023-01-11T08:48:26.735Z,9.83
2023-01-11T08:49:26.795Z,9.78
2023-01-11T08:50:26.890Z,9.88
2023-01-11T08:51:26.979Z,9.78
2023-01-11T08:52:27.036Z,9.72
2023-01-11T08:53:27.120Z,9.78
2023-01-11T08:54:27.203Z,9.83
2023-01-11T08:55:27.278Z,9.78
2023-01-11T08:56:27.351Z,9.78
2023-01-11T08:57:27.443Z,9.88
2023-01-11T08:58:27.542Z,9.83
2023-01-11T08:59:27.602Z,9.78
2023-01-11T09:00:27.724Z,9.83
2023-01-11T09:01:27.857Z,9.83
2023-01-11T09:02:27.930Z,9.83
2023-01-11T09:03:27.935Z,9.78
2023-01-11T09:04:28.013Z,9.83
2023-01-11T09:05:28.119Z,9.78
2023-01-11T09:06:28.207Z,9.78
2023-01-11T09:07:28.290Z,9.83
2023-01-11T09:08:28.422Z,9.78
2023-01-11T09:09:28.466Z,9.83
2023-01-11T09:10:28.515Z,9.83
2023-01-11T09:11:34.583Z,9.78
2023-01-11T09:12:28.684Z,9.78
2023-01-11T09:13:28.805Z,9.78
2023-01-11T09:14:28.883Z,9.83
2023-01-11T09:15:28.992Z,9.83
2023-01-11T09:16:29.038Z,9.78
2023-01-11T09:17:29.146Z,9.78
2023-01-11T09:18:29.215Z,9.78
2023-01-11T09:19:29.315Z,9.78
2023-01-11T09:20:29.361Z,9.78
2023-01-11T09:21:29.445Z,9.83
2023-01-11T09:22:29.524Z,9.78
2023-01-11T09:23:29.602Z,9.83
2023-01-11T09:24:29.705Z,9.88
2023-01-11T09:25:29.770Z,9.83
2023-01-11T09:26:29.863Z,9.83
2023-01-11T09:27:29.917Z,9.83
2023-01-11T09:28:30.014Z,9.83
2023-01-11T09:29:30.104Z,9.78
2023-01-11T09:30:30.225Z,9.78
2023-01-11T09:31:30.352Z,9.78
2023-01-11T09:32:30.307Z,9.78
2023-01-11T09:33:30.383Z,9.88
2023-01-11T09:34:30.534Z,9.78
2023-01-11T09:35:30.592Z,9.78
2023-01-11T09:36:30.645Z,9.83
2023-01-11T09:37:30.720Z,9.78
2023-01-11T09:38:30.807Z,9.78
2023-01-11T09:39:30.896Z,9.78
2023-01-11T09:40:30.967Z,9.83
2023-01-11T09:41:31.057Z,9.83
2023-01-11T09:42:37.101Z,9.78
2023-01-11T09:43:31.187Z,9.78
2023-01-11T09:44:31.274Z,9.78
2023-01-11T09:45:31.371Z,9.83
2023-01-11T09:46:31.491Z,9.78
2023-01-11T09:47:31.564Z,9.83
2023-01-11T09:48:31.628Z,9.78
2023-01-11T09:49:31.717Z,9.83
2023-01-11T09:50:31.813Z,9.78
2023-01-11T09:51:31.882Z,9.83
2023-01-11T09:52:31.943Z,9.78
2023-01-11T09:53:32.045Z,9.78
2023-01-11T09:54:32.109Z,9.78
2023-01-11T09:55:32.178Z,9.83
2023-01-11T09:56:32.273Z,9.78
2023-01-11T09:57:32.356Z,9.78
2023-01-11T09:58:32.440Z,9.78
2023-01-11T09:59:32.520Z,9.94
2023-01-11T10:00:32.643Z,9.78
2023-01-11T10:01:32.697Z,9.83
2023-01-11T10:02:32.736Z,9.83
2023-01-11T10:03:32.811Z,9.78
2023-01-11T10:04:33.040Z,9.78
2023-01-11T10:05:33.001Z,9.83
2023-01-11T10:06:33.066Z,9.83
2023-01-11T10:07:33.138Z,9.83
2023-01-11T10:18:31.450Z,9.83
2023-01-11T10:19:17.009Z,9.78
2023-01-11T10:19:41.380Z,9.83
2023-01-11T10:19:57.284Z,9.78
2023-01-11T10:20:57.298Z,9.78
2023-01-11T10:21:57.400Z,9.78
2023-01-11T10:22:57.453Z,9.78
2023-01-11T10:23:57.532Z,9.83
2023-01-11T10:24:57.650Z,9.78
2023-01-11T10:25:57.704Z,9.78
2023-01-11T10:26:57.876Z,9.83
2023-01-11T10:27:57.882Z,9.78
2023-01-11T10:28:57.975Z,9.83
2023-01-11T10:29:58.059Z,9.78
2023-01-11T10:30:58.158Z,9.83
2023-01-11T10:31:58.199Z,9.94
2023-01-11T10:32:58.264Z,9.78
2023-01-11T10:33:58.355Z,10.04
2023-01-11T10:34:58.433Z,9.83
2023-01-11T10:35:58.533Z,9.78
2023-01-11T10:36:58.609Z,9.83
2023-01-11T10:37:58.661Z,9.83
2023-01-11T10:38:58.739Z,9.88
2023-01-11T10:39:58.812Z,9.78
2023-01-11T10:40:58.883Z,9.83
2023-01-11T10:41:58.981Z,9.83
2023-01-11T10:42:59.045Z,9.83
2023-01-11T10:43:59.132Z,9.78
2023-01-11T10:44:59.219Z,9.78
2023-01-11T10:46:59.396Z,9.83
2023-01-11T10:47:59.504Z,9.78
2023-01-11T10:48:59.538Z,9.83
2023-01-11T10:49:59.627Z,9.83
2023-01-11T10:50:59.703Z,9.78
2023-01-11T10:51:59.759Z,9.83
2023-01-11T10:52:59.864Z,9.78
2023-01-11T10:53:59.982Z,9.88
2023-01-11T10:55:00.028Z,9.83
2023-01-11T10:56:00.129Z,9.78
2023-01-11T10:57:03.600Z,9.83
2023-01-11T10:58:03.352Z,9.83
2023-01-11T10:59:00.390Z,9.83
2023-01-11T11:00:00.508Z,9.83
2023-01-11T11:01:00.667Z,9.83
2023-01-11T11:02:00.669Z,9.78
2023-01-11T11:03:00.686Z,9.78
2023-01-11T11:04:00.765Z,9.83
2023-01-11T11:05:00.870Z,9.78
2023-01-11T11:06:01.042Z,9.78
2023-01-11T11:07:01.015Z,9.78
2023-01-11T11:08:01.095Z,9.78
2023-01-11T11:09:01.206Z,9.83
2023-01-11T11:10:01.255Z,9.78
2023-01-11T11:11:01.349Z,9.78
2023-01-11T11:12:01.450Z,9.83
2023-01-11T11:13:01.501Z,9.83
2023-01-11T11:14:01.578Z,9.78
2023-01-11T11:15:01.671Z,9.78
2023-01-11T11:16:01.794Z,9.78
2023-01-11T11:17:07.816Z,9.78
2023-01-11T11:18:01.890Z,9.78
2023-01-11T11:19:01.987Z,9.94
2023-01-11T11:20:02.082Z,9.83
2023-01-11T11:21:02.148Z,9.78
2023-01-11T11:22:02.249Z,9.78
2023-01-11T11:23:02.359Z,9.78
2023-01-11T11:24:02.486Z,9.78
2023-01-11T11:25:02.516Z,9.78
2023-01-11T11:26:02.589Z,9.83
2023-01-11T11:27:02.719Z,9.78
2023-01-11T11:28:02.806Z,9.83
2023-01-11T11:29:02.873Z,9.78
2023-01-11T11:30:02.966Z,9.88
2023-01-11T11:31:03.056Z,9.83
2023-01-11T11:32:03.268Z,9.83
2023-01-11T11:33:03.239Z,9.78
2023-01-11T11:34:03.351Z,9.83
2023-01-11T11:35:03.404Z,9.78
2023-01-11T11:36:03.468Z,9.83
2023-01-11T11:37:03.586Z,9.78
2023-01-11T11:38:03.674Z,9.83
2023-01-11T11:39:03.789Z,9.83
2023-01-11T11:40:03.870Z,9.78
2023-01-11T11:41:03.967Z,9.78
2023-01-11T11:42:04.015Z,9.78
2023-01-11T11:43:04.109Z,9.88
2023-01-11T11:44:04.174Z,9.83
2023-01-11T11:45:04.282Z,9.78
2023-01-11T11:46:04.379Z,9.83
2023-01-11T11:47:04.450Z,9.94
2023-01-11T11:48:10.526Z,9.78
2023-01-11T11:49:04.641Z,9.83
2023-01-11T11:50:04.730Z,9.78
2023-01-11T11:51:04.784Z,9.78
2023-01-11T11:52:04.872Z,9.78
2023-01-11T11:53:04.977Z,9.78
2023-01-11T11:54:05.065Z,9.78
2023-01-11T11:55:05.119Z,9.78
2023-01-11T11:56:05.221Z,9.83
2023-01-11T11:57:05.288Z,9.83
2023-01-11T11:58:05.360Z,9.78
2023-01-11T11:59:05.466Z,9.78
2023-01-11T12:00:05.515Z,9.78
2023-01-11T12:01:05.593Z,9.83
2023-01-11T12:02:05.747Z,9.83
2023-01-11T12:03:05.784Z,9.78
2023-01-11T12:04:05.843Z,9.78
2023-01-11T12:05:05.970Z,9.83
2023-01-11T12:06:06.020Z,9.83
2023-01-11T12:07:06.114Z,9.83
2023-01-11T12:08:06.162Z,9.78
2023-01-11T12:09:06.260Z,9.83
2023-01-11T12:10:06.310Z,9.83
2023-01-11T12:11:06.387Z,9.78
2023-01-11T12:12:06.492Z,9.78
2023-01-11T12:13:06.666Z,9.83
2023-01-11T12:14:06.665Z,9.78
2023-01-11T12:15:06.752Z,9.78
2023-01-11T12:16:06.853Z,9.83
2023-01-11T12:17:06.902Z,9.78
2023-01-11T12:18:07.015Z,9.78
2023-01-11T12:19:13.038Z,9.78
2023-01-11T12:20:07.132Z,9.78
2023-01-11T12:21:07.223Z,9.78
2023-01-11T12:22:07.334Z,9.78
2023-01-11T12:23:07.419Z,9.78
2023-01-11T12:24:07.479Z,9.72
2023-01-11T12:25:07.568Z,9.78
2023-01-11T12:26:07.627Z,9.94
2023-01-11T12:27:07.768Z,9.83
2023-01-11T12:28:07.784Z,9.78
2023-01-11T12:29:07.906Z,9.78
2023-01-11T12:30:07.977Z,9.83
2023-01-11T12:31:08.073Z,9.83
2023-01-11T12:32:08.085Z,9.83
2023-01-11T12:33:08.165Z,9.83
2023-01-11T12:34:08.231Z,9.78
2023-01-11T12:35:08.320Z,9.78
2023-01-11T12:36:08.437Z,9.83
2023-01-11T12:37:08.480Z,9.78
2023-01-11T12:38:08.563Z,9.78
2023-01-11T12:39:08.642Z,9.88
2023-01-11T12:40:08.714Z,9.94
2023-01-11T12:41:08.865Z,9.83
2023-01-11T12:42:08.852Z,9.78
2023-01-11T12:43:08.970Z,9.78
2023-01-11T12:44:09.047Z,9.88
2023-01-11T12:45:09.165Z,9.78
2023-01-11T12:46:09.262Z,9.78
2023-01-11T12:47:09.338Z,9.83
2023-01-11T12:48:09.436Z,9.78
2023-01-11T12:49:09.529Z,9.83
2023-01-11T12:50:15.579Z,9.78
2023-01-11T12:51:09.676Z,9.83
2023-01-11T12:52:09.781Z,9.83
2023-01-11T12:53:09.890Z,9.83
2023-01-11T12:54:09.923Z,9.83
2023-01-11T12:55:10.007Z,9.83
2023-01-11T12:56:10.067Z,9.83
2023-01-11T12:57:10.169Z,9.88
2023-01-11T12:58:12.634Z,9.83
2023-01-11T12:59:10.349Z,9.78
2023-01-11T13:00:10.441Z,9.78
2023-01-11T13:01:10.629Z,9.78
2023-01-11T13:02:10.650Z,9.83
2023-01-11T13:03:10.730Z,9.78
2023-01-11T13:04:12.289Z,9.78
2023-01-11T13:05:10.872Z,9.72
2023-01-11T13:06:10.946Z,9.83
2023-01-11T13:07:11.030Z,9.78
2023-01-11T13:08:11.103Z,9.78
2023-01-11T13:09:11.389Z,9.83
2023-01-11T13:10:11.313Z,9.78
2023-01-11T13:11:11.414Z,9.78
2023-01-11T13:12:11.424Z,9.78
2023-01-11T13:13:11.533Z,9.83
2023-01-11T13:14:11.666Z,9.83
2023-01-11T13:15:11.703Z,9.78
2023-01-11T13:16:11.765Z,9.78
2023-01-11T13:17:11.868Z,9.83
2023-01-11T13:18:11.982Z,9.83
2023-01-11T13:19:12.027Z,9.78
2023-01-11T13:20:12.243Z,9.83
2023-01-11T13:21:18.144Z,9.83
2023-01-11T13:22:12.221Z,9.83
2023-01-11T13:23:12.298Z,9.83
2023-01-11T13:24:12.393Z,9.78
2023-01-11T13:25:12.534Z,9.83
2023-01-11T13:26:12.577Z,9.78
2023-01-11T13:27:12.687Z,9.78